sensor_id;sensor_type;location;lat;lon;timestamp;temperature;humidity
73643;DHT22;61938;48.652;9.292;2023-02-28T00:01:20;-1.80;99.90
73643;DHT22;61938;48.652;9.292;2023-02-28T00:03:46;-1.80;99.90
73643;DHT22;61938;48.652;9.292;2023-02-28T00:06:11;-1.80;99.90
73643;DHT22;61938;48.652;9.292;2023-02-28T00:08:37;-1.90;99.90
73643;DHT22;61938;48.652;9.292;2023-02-28T00:11:07;-1.90;99.90
73643;DHT22;61938;48.652;9.292;2023-02-28T00:13:35;-1.90;99.90
73643;DHT22;61938;48.652;9.292;2023-02-28T00:16:08;-2.00;99.90
73643;DHT22;61938;48.652;9.292;2023-02-28T00:18:34;-2.00;99.90
73643;DHT22;61938;48.652;9.292;2023-02-28T00:21:00;-2.00;99.90
73643;DHT22;61938;48.652;9.292;2023-02-28T00:23:26;-2.00;99.90
73643;DHT22;61938;48.652;9.292;2023-02-28T00:25:53;-2.00;99.90
73643;DHT22;61938;48.652;9.292;2023-02-28T00:28:19;-2.00;99.90
73643;DHT22;61938;48.652;9.292;2023-02-28T00:30:44;-2.00;99.90
73643;DHT22;61938;48.652;9.292;2023-02-28T00:33:10;-2.10;99.90
73643;DHT22;61938;48.652;9.292;2023-02-28T00:35:36;-2.10;99.90
73643;DHT22;61938;48.652;9.292;2023-02-28T00:38:01;-2.10;99.90
73643;DHT22;61938;48.652;9.292;2023-02-28T00:40:27;-2.10;99.90
73643;DHT22;61938;48.652;9.292;2023-02-28T00:42:53;-2.10;99.90
73643;DHT22;61938;48.652;9.292;2023-02-28T00:45:19;-2.10;99.90
73643;DHT22;61938;48.652;9.292;2023-02-28T00:47:44;-2.00;99.90
73643;DHT22;61938;48.652;9.292;2023-02-28T00:50:12;-2.10;99.90
73643;DHT22;61938;48.652;9.292;2023-02-28T00:52:37;-2.10;99.90
73643;DHT22;61938;48.652;9.292;2023-02-28T00:55:03;-2.00;99.90
73643;DHT22;61938;48.652;9.292;2023-02-28T00:57:29;-2.10;99.90
73643;DHT22;61938;48.652;9.292;2023-02-28T00:59:54;-2.10;99.90
73643;DHT22;61938;48.652;9.292;2023-02-28T01:02:21;-2.10;99.90
73643;DHT22;61938;48.652;9.292;2023-02-28T01:04:47;-2.10;99.90
73643;DHT22;61938;48.652;9.292;2023-02-28T01:07:12;-2.10;99.90
73643;DHT22;61938;48.652;9.292;2023-02-28T01:09:40;-2.10;99.90
73643;DHT22;61938;48.652;9.292;2023-02-28T01:12:07;-2.10;99.90
73643;DHT22;61938;48.652;9.292;2023-02-28T01:14:32;-2.10;99.90
73643;DHT22;61938;48.652;9.292;2023-02-28T01:16:58;-2.00;99.90
73643;DHT22;61938;48.652;9.292;2023-02-28T01:19:23;-2.00;99.90
73643;DHT22;61938;48.652;9.292;2023-02-28T01:21:49;-2.00;99.90
73643;DHT22;61938;48.652;9.292;2023-02-28T01:24:14;-2.00;99.90
73643;DHT22;61938;48.652;9.292;2023-02-28T01:26:40;-2.00;99.90
73643;DHT22;61938;48.652;9.292;2023-02-28T01:29:05;-2.00;99.90
73643;DHT22;61938;48.652;9.292;2023-02-28T01:31:31;-2.00;99.90
73643;DHT22;61938;48.652;9.292;2023-02-28T01:33:56;-2.00;99.90
73643;DHT22;61938;48.652;9.292;2023-02-28T01:36:23;-1.90;99.90
73643;DHT22;61938;48.652;9.292;2023-02-28T01:38:49;-2.00;99.90
73643;DHT22;61938;48.652;9.292;2023-02-28T01:41:24;-2.00;99.90
73643;DHT22;61938;48.652;9.292;2023-02-28T01:46:18;-1.90;99.90
73643;DHT22;61938;48.652;9.292;2023-02-28T01:48:53;-1.90;99.90
73643;DHT22;61938;48.652;9.292;2023-02-28T01:51:29;-2.00;99.90
73643;DHT22;61938;48.652;9.292;2023-02-28T01:54:00;-2.00;99.90
73643;DHT22;61938;48.652;9.292;2023-02-28T01:56:30;-2.00;99.90
73643;DHT22;61938;48.652;9.292;2023-02-28T01:58:56;-2.00;99.90
73643;DHT22;61938;48.652;9.292;2023-02-28T02:01:24;-2.00;99.90
73643;DHT22;61938;48.652;9.292;2023-02-28T02:03:55;-2.10;99.90
73643;DHT22;61938;48.652;9.292;2023-02-28T02:06:23;-2.10;99.90
73643;DHT22;61938;48.652;9.292;2023-02-28T02:08:50;-2.10;99.90
73643;DHT22;61938;48.652;9.292;2023-02-28T02:11:19;-2.10;99.90
73643;DHT22;61938;48.652;9.292;2023-02-28T02:17:35;-2.10;99.90
73643;DHT22;61938;48.652;9.292;2023-02-28T02:23:02;-2.10;99.90
73643;DHT22;61938;48.652;9.292;2023-02-28T02:39:14;-1.90;99.90
73643;DHT22;61938;48.652;9.292;2023-02-28T02:41:47;-1.90;99.90
73643;DHT22;61938;48.652;9.292;2023-02-28T02:44:24;-1.90;99.90
73643;DHT22;61938;48.652;9.292;2023-02-28T02:47:01;-1.90;99.90
73643;DHT22;61938;48.652;9.292;2023-02-28T02:49:31;-1.90;99.90
73643;DHT22;61938;48.652;9.292;2023-02-28T02:52:02;-1.90;99.90
73643;DHT22;61938;48.652;9.292;2023-02-28T02:54:31;-1.90;99.90
73643;DHT22;61938;48.652;9.292;2023-02-28T02:57:03;-1.80;99.90
73643;DHT22;61938;48.652;9.292;2023-02-28T02:59:32;-1.90;99.90
73643;DHT22;61938;48.652;9.292;2023-02-28T03:02:03;-1.90;99.90
73643;DHT22;61938;48.652;9.292;2023-02-28T03:04:40;-1.90;99.90
73643;DHT22;61938;48.652;9.292;2023-02-28T03:07:07;-1.90;99.90
73643;DHT22;61938;48.652;9.292;2023-02-28T03:09:34;-1.90;99.90
73643;DHT22;61938;48.652;9.292;2023-02-28T03:12:02;-1.90;99.90
73643;DHT22;61938;48.652;9.292;2023-02-28T03:17:17;-1.90;99.90
73643;DHT22;61938;48.652;9.292;2023-02-28T03:22:32;-1.90;99.90
73643;DHT22;61938;48.652;9.292;2023-02-28T03:25:12;-1.80;99.90
73643;DHT22;61938;48.652;9.292;2023-02-28T03:30:45;-1.80;99.90
73643;DHT22;61938;48.652;9.292;2023-02-28T03:33:17;-1.80;99.90
73643;DHT22;61938;48.652;9.292;2023-02-28T03:35:54;-1.80;99.90
73643;DHT22;61938;48.652;9.292;2023-02-28T03:38:27;-1.80;99.90
73643;DHT22;61938;48.652;9.292;2023-02-28T03:41:09;-1.80;99.90
73643;DHT22;61938;48.652;9.292;2023-02-28T03:43:39;-1.80;99.90
73643;DHT22;61938;48.652;9.292;2023-02-28T03:46:09;-1.70;99.90
73643;DHT22;61938;48.652;9.292;2023-02-28T03:48:46;-1.70;99.90
73643;DHT22;61938;48.652;9.292;2023-02-28T03:51:17;-1.70;99.90
73643;DHT22;61938;48.652;9.292;2023-02-28T03:53:47;-1.70;99.90
73643;DHT22;61938;48.652;9.292;2023-02-28T03:56:29;-1.70;99.90
73643;DHT22;61938;48.652;9.292;2023-02-28T03:59:17;-1.60;99.90
73643;DHT22;61938;48.652;9.292;2023-02-28T04:01:48;-1.70;99.90
73643;DHT22;61938;48.652;9.292;2023-02-28T04:04:15;-1.70;99.90
73643;DHT22;61938;48.652;9.292;2023-02-28T04:06:41;-1.70;99.90
73643;DHT22;61938;48.652;9.292;2023-02-28T04:09:09;-1.60;99.90
73643;DHT22;61938;48.652;9.292;2023-02-28T04:11:38;-1.60;99.90
73643;DHT22;61938;48.652;9.292;2023-02-28T04:14:05;-1.70;99.90
73643;DHT22;61938;48.652;9.292;2023-02-28T04:16:32;-1.70;99.90
73643;DHT22;61938;48.652;9.292;2023-02-28T04:18:58;-1.70;99.90
73643;DHT22;61938;48.652;9.292;2023-02-28T04:21:31;-1.70;99.90
73643;DHT22;61938;48.652;9.292;2023-02-28T04:23:57;-1.60;99.90
73643;DHT22;61938;48.652;9.292;2023-02-28T04:26:28;-1.60;99.90
73643;DHT22;61938;48.652;9.292;2023-02-28T04:28:53;-1.60;99.90
73643;DHT22;61938;48.652;9.292;2023-02-28T04:31:19;-1.60;99.90
73643;DHT22;61938;48.652;9.292;2023-02-28T04:33:44;-1.60;99.90
73643;DHT22;61938;48.652;9.292;2023-02-28T04:36:10;-1.60;99.90
73643;DHT22;61938;48.652;9.292;2023-02-28T04:38:37;-1.60;99.90
73643;DHT22;61938;48.652;9.292;2023-02-28T04:41:04;-1.60;99.90
73643;DHT22;61938;48.652;9.292;2023-02-28T04:43:30;-1.50;99.90
73643;DHT22;61938;48.652;9.292;2023-02-28T04:45:57;-1.60;99.90
73643;DHT22;61938;48.652;9.292;2023-02-28T04:48:24;-1.50;99.90
73643;DHT22;61938;48.652;9.292;2023-02-28T04:50:50;-1.50;99.90
73643;DHT22;61938;48.652;9.292;2023-02-28T04:53:16;-1.60;99.90
73643;DHT22;61938;48.652;9.292;2023-02-28T04:55:42;-1.50;99.90
73643;DHT22;61938;48.652;9.292;2023-02-28T04:58:07;-1.50;99.90
73643;DHT22;61938;48.652;9.292;2023-02-28T05:00:33;-1.60;99.90
73643;DHT22;61938;48.652;9.292;2023-02-28T05:02:58;-1.50;99.90
73643;DHT22;61938;48.652;9.292;2023-02-28T05:05:24;-1.50;99.90
73643;DHT22;61938;48.652;9.292;2023-02-28T05:07:49;-1.50;99.90
73643;DHT22;61938;48.652;9.292;2023-02-28T05:10:15;-1.50;99.90
73643;DHT22;61938;48.652;9.292;2023-02-28T05:12:40;-1.50;99.90
73643;DHT22;61938;48.652;9.292;2023-02-28T05:15:07;-1.50;99.90
73643;DHT22;61938;48.652;9.292;2023-02-28T05:17:33;-1.50;99.90
73643;DHT22;61938;48.652;9.292;2023-02-28T05:19:59;-1.50;99.90
73643;DHT22;61938;48.652;9.292;2023-02-28T05:22:24;-1.50;99.90
73643;DHT22;61938;48.652;9.292;2023-02-28T05:24:50;-1.50;99.90
73643;DHT22;61938;48.652;9.292;2023-02-28T05:27:15;-1.50;99.90
73643;DHT22;61938;48.652;9.292;2023-02-28T05:29:41;-1.50;99.90
73643;DHT22;61938;48.652;9.292;2023-02-28T05:32:11;-1.50;99.90
73643;DHT22;61938;48.652;9.292;2023-02-28T05:34:38;-1.50;99.90
73643;DHT22;61938;48.652;9.292;2023-02-28T05:37:04;-1.50;99.90
73643;DHT22;61938;48.652;9.292;2023-02-28T05:39:29;-1.40;99.90
73643;DHT22;61938;48.652;9.292;2023-02-28T05:41:55;-1.40;99.90
73643;DHT22;61938;48.652;9.292;2023-02-28T05:44:20;-1.40;99.90
73643;DHT22;61938;48.652;9.292;2023-02-28T05:46:46;-1.40;99.90
73643;DHT22;61938;48.652;9.292;2023-02-28T05:49:11;-1.40;99.90
73643;DHT22;61938;48.652;9.292;2023-02-28T05:51:37;-1.40;99.90
73643;DHT22;61938;48.652;9.292;2023-02-28T05:54:05;-1.40;99.90
73643;DHT22;61938;48.652;9.292;2023-02-28T05:56:31;-1.30;99.90
73643;DHT22;61938;48.652;9.292;2023-02-28T05:58:57;-1.40;99.90
73643;DHT22;61938;48.652;9.292;2023-02-28T06:01:41;-1.40;99.90
73643;DHT22;61938;48.652;9.292;2023-02-28T06:04:09;-1.30;99.90
73643;DHT22;61938;48.652;9.292;2023-02-28T06:06:35;-1.40;99.90
73643;DHT22;61938;48.652;9.292;2023-02-28T06:09:05;-1.40;99.90
73643;DHT22;61938;48.652;9.292;2023-02-28T06:11:31;-1.40;99.90
73643;DHT22;61938;48.652;9.292;2023-02-28T06:13:58;-1.40;99.90
73643;DHT22;61938;48.652;9.292;2023-02-28T06:16:25;-1.30;99.90
73643;DHT22;61938;48.652;9.292;2023-02-28T06:18:51;-1.30;99.90
73643;DHT22;61938;48.652;9.292;2023-02-28T06:21:18;-1.30;99.90
73643;DHT22;61938;48.652;9.292;2023-02-28T06:23:43;-1.30;99.90
73643;DHT22;61938;48.652;9.292;2023-02-28T06:26:09;-1.30;99.90
73643;DHT22;61938;48.652;9.292;2023-02-28T06:28:35;-1.30;99.90
73643;DHT22;61938;48.652;9.292;2023-02-28T06:31:08;-1.30;99.90
73643;DHT22;61938;48.652;9.292;2023-02-28T06:33:35;-1.30;99.90
73643;DHT22;61938;48.652;9.292;2023-02-28T06:36:00;-1.20;99.90
73643;DHT22;61938;48.652;9.292;2023-02-28T06:38:26;-1.20;99.90
73643;DHT22;61938;48.652;9.292;2023-02-28T06:40:56;-1.20;99.90
73643;DHT22;61938;48.652;9.292;2023-02-28T06:43:23;-1.20;99.90
73643;DHT22;61938;48.652;9.292;2023-02-28T06:45:48;-1.20;99.90
73643;DHT22;61938;48.652;9.292;2023-02-28T06:48:14;-1.10;99.90
73643;DHT22;61938;48.652;9.292;2023-02-28T06:50:39;-1.10;99.90
73643;DHT22;61938;48.652;9.292;2023-02-28T06:53:05;-1.20;99.90
73643;DHT22;61938;48.652;9.292;2023-02-28T06:55:30;-1.10;99.90
73643;DHT22;61938;48.652;9.292;2023-02-28T06:57:57;-1.10;99.90
73643;DHT22;61938;48.652;9.292;2023-02-28T07:00:22;-1.10;99.90
73643;DHT22;61938;48.652;9.292;2023-02-28T07:02:48;-1.10;99.90
73643;DHT22;61938;48.652;9.292;2023-02-28T07:05:14;-1.10;99.90
73643;DHT22;61938;48.652;9.292;2023-02-28T07:07:39;-1.10;99.90
73643;DHT22;61938;48.652;9.292;2023-02-28T07:10:12;-1.10;99.90
73643;DHT22;61938;48.652;9.292;2023-02-28T07:12:39;-1.10;99.90
73643;DHT22;61938;48.652;9.292;2023-02-28T07:15:05;-1.10;99.90
73643;DHT22;61938;48.652;9.292;2023-02-28T07:17:31;-1.10;99.90
73643;DHT22;61938;48.652;9.292;2023-02-28T07:19:56;-1.10;99.90
73643;DHT22;61938;48.652;9.292;2023-02-28T07:22:22;-1.10;99.90
73643;DHT22;61938;48.652;9.292;2023-02-28T07:24:47;-1.00;99.90
73643;DHT22;61938;48.652;9.292;2023-02-28T07:27:13;-1.00;99.90
73643;DHT22;61938;48.652;9.292;2023-02-28T07:29:52;-1.00;99.90
73643;DHT22;61938;48.652;9.292;2023-02-28T07:32:18;-1.00;99.90
73643;DHT22;61938;48.652;9.292;2023-02-28T07:34:44;-1.00;99.90
73643;DHT22;61938;48.652;9.292;2023-02-28T07:37:09;-0.90;99.90
73643;DHT22;61938;48.652;9.292;2023-02-28T07:39:35;-0.90;99.90
73643;DHT22;61938;48.652;9.292;2023-02-28T07:42:04;-0.90;99.90
73643;DHT22;61938;48.652;9.292;2023-02-28T07:44:30;-0.90;99.90
73643;DHT22;61938;48.652;9.292;2023-02-28T07:46:55;-1.00;99.90
73643;DHT22;61938;48.652;9.292;2023-02-28T07:49:21;-0.90;99.90
73643;DHT22;61938;48.652;9.292;2023-02-28T07:51:46;-0.90;99.90
73643;DHT22;61938;48.652;9.292;2023-02-28T07:54:12;-0.90;99.90
73643;DHT22;61938;48.652;9.292;2023-02-28T07:56:37;-0.90;99.90
73643;DHT22;61938;48.652;9.292;2023-02-28T07:59:03;-0.90;99.90
73643;DHT22;61938;48.652;9.292;2023-02-28T08:01:29;-0.80;99.90
73643;DHT22;61938;48.652;9.292;2023-02-28T08:03:54;-0.80;99.90
73643;DHT22;61938;48.652;9.292;2023-02-28T08:06:23;-0.80;99.90
73643;DHT22;61938;48.652;9.292;2023-02-28T08:08:49;-0.80;99.90
73643;DHT22;61938;48.652;9.292;2023-02-28T08:11:16;-0.80;99.90
73643;DHT22;61938;48.652;9.292;2023-02-28T08:13:42;-0.70;99.90
73643;DHT22;61938;48.652;9.292;2023-02-28T08:16:09;-0.70;99.90
73643;DHT22;61938;48.652;9.292;2023-02-28T08:18:34;-0.80;99.90
73643;DHT22;61938;48.652;9.292;2023-02-28T08:21:06;-0.80;99.90
73643;DHT22;61938;48.652;9.292;2023-02-28T08:23:31;-0.70;99.90
73643;DHT22;61938;48.652;9.292;2023-02-28T08:25:58;-0.70;99.90
73643;DHT22;61938;48.652;9.292;2023-02-28T08:28:24;-0.70;99.90
73643;DHT22;61938;48.652;9.292;2023-02-28T08:30:49;-0.60;99.90
73643;DHT22;61938;48.652;9.292;2023-02-28T08:33:15;-0.60;99.90
73643;DHT22;61938;48.652;9.292;2023-02-28T08:35:40;-0.60;99.90
73643;DHT22;61938;48.652;9.292;2023-02-28T08:38:06;-0.60;99.90
73643;DHT22;61938;48.652;9.292;2023-02-28T08:40:31;-0.50;99.90
73643;DHT22;61938;48.652;9.292;2023-02-28T08:42:57;-0.50;99.90
73643;DHT22;61938;48.652;9.292;2023-02-28T08:45:23;-0.50;99.90
73643;DHT22;61938;48.652;9.292;2023-02-28T08:47:48;-0.50;99.90
73643;DHT22;61938;48.652;9.292;2023-02-28T08:50:14;-0.40;99.90
73643;DHT22;61938;48.652;9.292;2023-02-28T08:52:42;-0.40;99.90
73643;DHT22;61938;48.652;9.292;2023-02-28T08:55:08;-0.30;99.90
73643;DHT22;61938;48.652;9.292;2023-02-28T08:57:34;-0.30;99.90
73643;DHT22;61938;48.652;9.292;2023-02-28T09:00:00;-0.20;99.90
73643;DHT22;61938;48.652;9.292;2023-02-28T09:02:30;-0.20;99.90
73643;DHT22;61938;48.652;9.292;2023-02-28T09:04:55;-0.20;99.90
73643;DHT22;61938;48.652;9.292;2023-02-28T09:07:21;-0.10;99.90
73643;DHT22;61938;48.652;9.292;2023-02-28T09:09:46;-0.10;99.90
73643;DHT22;61938;48.652;9.292;2023-02-28T09:12:25;-0.10;99.90
73643;DHT22;61938;48.652;9.292;2023-02-28T09:14:51;-0.10;99.90
73643;DHT22;61938;48.652;9.292;2023-02-28T09:17:17;-0.10;99.90
73643;DHT22;61938;48.652;9.292;2023-02-28T09:19:43;-0.10;99.90
73643;DHT22;61938;48.652;9.292;2023-02-28T09:22:09;-0.10;99.90
73643;DHT22;61938;48.652;9.292;2023-02-28T09:24:37;-0.10;99.90
73643;DHT22;61938;48.652;9.292;2023-02-28T09:27:03;-0.10;99.90
73643;DHT22;61938;48.652;9.292;2023-02-28T09:29:28;0.00;99.90
73643;DHT22;61938;48.652;9.292;2023-02-28T09:31:54;0.10;99.90
73643;DHT22;61938;48.652;9.292;2023-02-28T09:34:20;0.20;99.90
73643;DHT22;61938;48.652;9.292;2023-02-28T09:36:45;0.20;99.90
73643;DHT22;61938;48.652;9.292;2023-02-28T09:39:11;0.20;99.90
73643;DHT22;61938;48.652;9.292;2023-02-28T09:41:40;0.20;99.90
73643;DHT22;61938;48.652;9.292;2023-02-28T09:44:24;0.20;99.90
73643;DHT22;61938;48.652;9.292;2023-02-28T09:46:56;0.20;99.90
73643;DHT22;61938;48.652;9.292;2023-02-28T09:49:24;0.20;99.90
73643;DHT22;61938;48.652;9.292;2023-02-28T09:52:09;0.20;99.90
73643;DHT22;61938;48.652;9.292;2023-02-28T09:54:36;0.20;99.90
73643;DHT22;61938;48.652;9.292;2023-02-28T09:57:10;0.20;99.90
73643;DHT22;61938;48.652;9.292;2023-02-28T10:02:39;0.30;99.90
73643;DHT22;61938;48.652;9.292;2023-02-28T10:05:16;0.40;99.90
73643;DHT22;61938;48.652;9.292;2023-02-28T10:08:14;0.50;99.90
73643;DHT22;61938;48.652;9.292;2023-02-28T10:10:47;0.50;99.90
73643;DHT22;61938;48.652;9.292;2023-02-28T10:16:06;0.50;99.90
73643;DHT22;61938;48.652;9.292;2023-02-28T10:18:47;0.60;99.90
73643;DHT22;61938;48.652;9.292;2023-02-28T10:21:19;0.60;99.90
73643;DHT22;61938;48.652;9.292;2023-02-28T10:23:46;0.60;99.90
73643;DHT22;61938;48.652;9.292;2023-02-28T10:26:14;0.70;99.90
73643;DHT22;61938;48.652;9.292;2023-02-28T10:28:41;0.80;99.90
73643;DHT22;61938;48.652;9.292;2023-02-28T10:31:11;0.90;99.90
73643;DHT22;61938;48.652;9.292;2023-02-28T10:33:38;0.90;99.90
73643;DHT22;61938;48.652;9.292;2023-02-28T10:36:05;1.00;99.90
73643;DHT22;61938;48.652;9.292;2023-02-28T10:38:37;1.00;99.90
73643;DHT22;61938;48.652;9.292;2023-02-28T10:43:29;0.80;99.90
73643;DHT22;61938;48.652;9.292;2023-02-28T10:46:09;0.90;99.90
73643;DHT22;61938;48.652;9.292;2023-02-28T10:48:59;1.00;99.90
73643;DHT22;61938;48.652;9.292;2023-02-28T10:51:38;1.20;99.90
73643;DHT22;61938;48.652;9.292;2023-02-28T10:54:04;1.30;99.90
73643;DHT22;61938;48.652;9.292;2023-02-28T10:56:31;1.30;99.90
73643;DHT22;61938;48.652;9.292;2023-02-28T11:01:40;1.70;99.90
73643;DHT22;61938;48.652;9.292;2023-02-28T11:04:16;1.90;99.90
73643;DHT22;61938;48.652;9.292;2023-02-28T11:06:43;2.20;99.90
73643;DHT22;61938;48.652;9.292;2023-02-28T11:09:23;2.10;99.90
73643;DHT22;61938;48.652;9.292;2023-02-28T11:11:50;2.30;99.90
73643;DHT22;61938;48.652;9.292;2023-02-28T11:14:22;2.40;99.90
73643;DHT22;61938;48.652;9.292;2023-02-28T11:16:50;2.50;99.90
73643;DHT22;61938;48.652;9.292;2023-02-28T11:20:07;2.70;99.90
73643;DHT22;61938;48.652;9.292;2023-02-28T11:22:19;2.80;99.90
73643;DHT22;61938;48.652;9.292;2023-02-28T11:24:49;3.00;99.90
73643;DHT22;61938;48.652;9.292;2023-02-28T11:27:26;3.10;99.90
73643;DHT22;61938;48.652;9.292;2023-02-28T11:30:00;3.30;99.90
73643;DHT22;61938;48.652;9.292;2023-02-28T11:32:27;3.50;99.90
73643;DHT22;61938;48.652;9.292;2023-02-28T11:37:35;3.00;99.90
73643;DHT22;61938;48.652;9.292;2023-02-28T11:40:01;3.00;99.90
73643;DHT22;61938;48.652;9.292;2023-02-28T11:42:44;3.10;99.90
73643;DHT22;61938;48.652;9.292;2023-02-28T11:45:23;3.30;99.90
73643;DHT22;61938;48.652;9.292;2023-02-28T11:48:01;3.70;99.90
73643;DHT22;61938;48.652;9.292;2023-02-28T11:50:45;3.60;99.90
73643;DHT22;61938;48.652;9.292;2023-02-28T11:53:18;4.10;99.90
73643;DHT22;61938;48.652;9.292;2023-02-28T11:58:58;4.60;99.90
73643;DHT22;61938;48.652;9.292;2023-02-28T12:02:05;4.90;99.90
73643;DHT22;61938;48.652;9.292;2023-02-28T12:04:51;5.30;99.90
73643;DHT22;61938;48.652;9.292;2023-02-28T12:11:09;5.90;99.90
73643;DHT22;61938;48.652;9.292;2023-02-28T12:13:18;6.10;99.90
73643;DHT22;61938;48.652;9.292;2023-02-28T12:15:58;5.90;99.90
73643;DHT22;61938;48.652;9.292;2023-02-28T12:18:54;5.40;99.90
73643;DHT22;61938;48.652;9.292;2023-02-28T12:21:26;5.50;99.90
73643;DHT22;61938;48.652;9.292;2023-02-28T12:26:57;5.30;99.90
73643;DHT22;61938;48.652;9.292;2023-02-28T12:32:06;5.30;99.90
73643;DHT22;61938;48.652;9.292;2023-02-28T12:34:38;5.20;99.90
73643;DHT22;61938;48.652;9.292;2023-02-28T12:37:09;5.10;99.90
73643;DHT22;61938;48.652;9.292;2023-02-28T12:39:41;5.30;99.90
73643;DHT22;61938;48.652;9.292;2023-02-28T12:42:28;5.80;99.90
73643;DHT22;61938;48.652;9.292;2023-02-28T12:44:59;6.00;99.90
73643;DHT22;61938;48.652;9.292;2023-02-28T12:47:25;6.10;99.90
73643;DHT22;61938;48.652;9.292;2023-02-28T12:49:56;5.80;99.90
73643;DHT22;61938;48.652;9.292;2023-02-28T12:52:35;5.90;99.90
73643;DHT22;61938;48.652;9.292;2023-02-28T12:55:15;6.20;99.90
73643;DHT22;61938;48.652;9.292;2023-02-28T12:57:55;6.20;99.90
73643;DHT22;61938;48.652;9.292;2023-02-28T13:00:25;6.30;99.90
73643;DHT22;61938;48.652;9.292;2023-02-28T13:06:10;6.40;99.90
73643;DHT22;61938;48.652;9.292;2023-02-28T13:09:03;6.50;99.90
73643;DHT22;61938;48.652;9.292;2023-02-28T13:11:39;6.40;99.90
73643;DHT22;61938;48.652;9.292;2023-02-28T13:14:27;6.30;99.90
73643;DHT22;61938;48.652;9.292;2023-02-28T13:17:03;6.30;99.90
73643;DHT22;61938;48.652;9.292;2023-02-28T13:19:38;6.40;99.90
73643;DHT22;61938;48.652;9.292;2023-02-28T13:22:05;6.50;99.90
73643;DHT22;61938;48.652;9.292;2023-02-28T13:24:38;6.70;99.90
73643;DHT22;61938;48.652;9.292;2023-02-28T13:29:41;6.90;99.90
73643;DHT22;61938;48.652;9.292;2023-02-28T13:34:47;6.80;99.90
73643;DHT22;61938;48.652;9.292;2023-02-28T13:40:26;7.10;99.90
73643;DHT22;61938;48.652;9.292;2023-02-28T13:42:52;7.10;99.90
73643;DHT22;61938;48.652;9.292;2023-02-28T13:45:26;7.10;99.90
73643;DHT22;61938;48.652;9.292;2023-02-28T13:48:03;7.10;99.90
73643;DHT22;61938;48.652;9.292;2023-02-28T13:50:37;7.20;99.90
73643;DHT22;61938;48.652;9.292;2023-02-28T13:59:02;7.30;99.90
73643;DHT22;61938;48.652;9.292;2023-02-28T14:07:05;7.00;99.90
73643;DHT22;61938;48.652;9.292;2023-02-28T14:09:41;6.90;99.90
73643;DHT22;61938;48.652;9.292;2023-02-28T14:18:00;7.00;99.90
73643;DHT22;61938;48.652;9.292;2023-02-28T14:20:29;7.00;99.90
73643;DHT22;61938;48.652;9.292;2023-02-28T14:23:11;6.70;99.90
73643;DHT22;61938;48.652;9.292;2023-02-28T14:31:13;6.60;99.90
73643;DHT22;61938;48.652;9.292;2023-02-28T14:33:58;6.60;99.90
73643;DHT22;61938;48.652;9.292;2023-02-28T14:36:33;6.60;99.90
73643;DHT22;61938;48.652;9.292;2023-02-28T14:39:05;6.50;99.90
73643;DHT22;61938;48.652;9.292;2023-02-28T14:41:38;6.30;99.90
73643;DHT22;61938;48.652;9.292;2023-02-28T14:44:17;6.20;99.90
73643;DHT22;61938;48.652;9.292;2023-02-28T14:46:44;6.00;99.90
73643;DHT22;61938;48.652;9.292;2023-02-28T14:49:21;5.90;99.90
73643;DHT22;61938;48.652;9.292;2023-02-28T14:51:50;5.70;99.90
73643;DHT22;61938;48.652;9.292;2023-02-28T14:54:26;5.80;99.90
73643;DHT22;61938;48.652;9.292;2023-02-28T14:56:52;5.90;99.90
73643;DHT22;61938;48.652;9.292;2023-02-28T14:59:33;5.90;99.90
73643;DHT22;61938;48.652;9.292;2023-02-28T15:02:22;5.90;99.90
73643;DHT22;61938;48.652;9.292;2023-02-28T15:04:58;5.80;99.90
73643;DHT22;61938;48.652;9.292;2023-02-28T15:07:24;5.70;99.90
73643;DHT22;61938;48.652;9.292;2023-02-28T15:10:08;5.60;99.90
73643;DHT22;61938;48.652;9.292;2023-02-28T15:12:34;5.60;99.90
73643;DHT22;61938;48.652;9.292;2023-02-28T15:15:01;5.60;99.90
73643;DHT22;61938;48.652;9.292;2023-02-28T15:17:26;5.50;99.90
73643;DHT22;61938;48.652;9.292;2023-02-28T15:19:53;5.40;99.90
73643;DHT22;61938;48.652;9.292;2023-02-28T15:22:27;5.40;99.90
73643;DHT22;61938;48.652;9.292;2023-02-28T15:24:54;5.40;99.90
73643;DHT22;61938;48.652;9.292;2023-02-28T15:27:26;5.40;99.90
73643;DHT22;61938;48.652;9.292;2023-02-28T15:29:57;5.30;99.90
73643;DHT22;61938;48.652;9.292;2023-02-28T15:32:27;5.30;99.90
73643;DHT22;61938;48.652;9.292;2023-02-28T15:34:54;5.30;99.90
73643;DHT22;61938;48.652;9.292;2023-02-28T15:42:42;5.20;99.90
73643;DHT22;61938;48.652;9.292;2023-02-28T15:45:28;5.20;99.90
73643;DHT22;61938;48.652;9.292;2023-02-28T15:47:57;5.20;99.90
73643;DHT22;61938;48.652;9.292;2023-02-28T15:50:23;5.10;99.90
73643;DHT22;61938;48.652;9.292;2023-02-28T15:52:49;5.10;99.90
73643;DHT22;61938;48.652;9.292;2023-02-28T15:55:20;5.00;99.90
73643;DHT22;61938;48.652;9.292;2023-02-28T15:57:49;5.00;99.90
73643;DHT22;61938;48.652;9.292;2023-02-28T16:00:19;4.90;99.90
73643;DHT22;61938;48.652;9.292;2023-02-28T16:02:45;4.90;99.90
73643;DHT22;61938;48.652;9.292;2023-02-28T16:07:38;4.80;99.90
73643;DHT22;61938;48.652;9.292;2023-02-28T16:10:06;4.70;99.90
73643;DHT22;61938;48.652;9.292;2023-02-28T16:12:34;4.70;99.90
73643;DHT22;61938;48.652;9.292;2023-02-28T16:15:05;4.60;99.90
73643;DHT22;61938;48.652;9.292;2023-02-28T16:17:37;4.60;99.90
73643;DHT22;61938;48.652;9.292;2023-02-28T16:20:18;4.50;99.90
73643;DHT22;61938;48.652;9.292;2023-02-28T16:22:44;4.40;99.90
73643;DHT22;61938;48.652;9.292;2023-02-28T16:25:15;4.30;99.90
73643;DHT22;61938;48.652;9.292;2023-02-28T16:27:43;4.30;99.90
73643;DHT22;61938;48.652;9.292;2023-02-28T16:30:17;4.30;99.90
73643;DHT22;61938;48.652;9.292;2023-02-28T16:32:45;4.20;99.90
73643;DHT22;61938;48.652;9.292;2023-02-28T16:35:11;4.10;99.90
73643;DHT22;61938;48.652;9.292;2023-02-28T16:37:37;4.10;99.90
73643;DHT22;61938;48.652;9.292;2023-02-28T16:40:03;4.00;99.90
73643;DHT22;61938;48.652;9.292;2023-02-28T16:42:28;4.00;99.90
73643;DHT22;61938;48.652;9.292;2023-02-28T16:44:56;3.90;99.90
73643;DHT22;61938;48.652;9.292;2023-02-28T16:47:22;3.80;99.90
73643;DHT22;61938;48.652;9.292;2023-02-28T16:49:47;3.80;99.90
73643;DHT22;61938;48.652;9.292;2023-02-28T16:52:13;3.80;99.90
73643;DHT22;61938;48.652;9.292;2023-02-28T16:54:40;3.70;99.90
73643;DHT22;61938;48.652;9.292;2023-02-28T16:57:12;3.60;99.90
73643;DHT22;61938;48.652;9.292;2023-02-28T16:59:40;3.60;99.90
73643;DHT22;61938;48.652;9.292;2023-02-28T17:02:15;3.50;99.90
73643;DHT22;61938;48.652;9.292;2023-02-28T17:04:41;3.40;99.90
73643;DHT22;61938;48.652;9.292;2023-02-28T17:07:15;3.30;99.90
73643;DHT22;61938;48.652;9.292;2023-02-28T17:09:42;3.30;99.90
73643;DHT22;61938;48.652;9.292;2023-02-28T17:12:08;3.20;99.90
73643;DHT22;61938;48.652;9.292;2023-02-28T17:14:34;3.10;99.90
73643;DHT22;61938;48.652;9.292;2023-02-28T17:16:59;3.10;99.90
73643;DHT22;61938;48.652;9.292;2023-02-28T17:19:25;3.00;99.90
73643;DHT22;61938;48.652;9.292;2023-02-28T17:21:50;2.90;99.90
73643;DHT22;61938;48.652;9.292;2023-02-28T17:24:16;2.80;99.90
73643;DHT22;61938;48.652;9.292;2023-02-28T17:26:42;2.80;99.90
73643;DHT22;61938;48.652;9.292;2023-02-28T17:29:20;2.80;99.90
73643;DHT22;61938;48.652;9.292;2023-02-28T17:31:46;2.70;99.90